sensor_id;sensor_type;location;lat;lon;timestamp;pressure;altitude;pressure_sealevel;temperature;humidity
70589;BME280;58152;49.202;18.744;2023-03-20T00:03:49;97401.16;;;9.15;44.86
70589;BME280;58152;49.202;18.744;2023-03-20T00:06:23;97396.94;;;9.11;45.14
70589;BME280;58152;49.202;18.744;2023-03-20T00:08:51;97406.63;;;9.09;44.53
70589;BME280;58152;49.202;18.744;2023-03-20T00:13:54;97409.00;;;8.94;45.27
70589;BME280;58152;49.202;18.744;2023-03-20T00:16:22;97405.66;;;8.88;45.15
70589;BME280;58152;49.202;18.744;2023-03-20T00:18:48;97408.13;;;8.93;45.33
70589;BME280;58152;49.202;18.744;2023-03-20T00:21:17;97400.50;;;8.87;45.21
70589;BME280;58152;49.202;18.744;2023-03-20T00:23:44;97400.59;;;8.84;44.88
70589;BME280;58152;49.202;18.744;2023-03-20T00:26:15;97392.06;;;8.80;45.64
70589;BME280;58152;49.202;18.744;2023-03-20T00:28:46;97397.31;;;8.79;46.01
70589;BME280;58152;49.202;18.744;2023-03-20T00:31:34;97404.38;;;8.77;46.77
70589;BME280;58152;49.202;18.744;2023-03-20T00:34:08;97397.72;;;8.68;45.28
70589;BME280;58152;49.202;18.744;2023-03-20T00:36:35;97397.97;;;8.62;45.82
70589;BME280;58152;49.202;18.744;2023-03-20T00:39:01;97399.00;;;8.56;45.38
70589;BME280;58152;49.202;18.744;2023-03-20T00:46:49;97396.81;;;8.46;45.69
70589;BME280;58152;49.202;18.744;2023-03-20T00:49:16;97397.81;;;8.42;46.17
70589;BME280;58152;49.202;18.744;2023-03-20T00:51:42;97386.72;;;8.35;46.70
70589;BME280;58152;49.202;18.744;2023-03-20T00:54:12;97385.09;;;8.31;46.46
70589;BME280;58152;49.202;18.744;2023-03-20T00:56:54;97382.59;;;8.28;46.92
70589;BME280;58152;49.202;18.744;2023-03-20T00:59:23;97376.69;;;8.23;46.25
70589;BME280;58152;49.202;18.744;2023-03-20T01:01:50;97368.09;;;8.19;46.35
70589;BME280;58152;49.202;18.744;2023-03-20T01:04:17;97372.53;;;8.17;46.53
70589;BME280;58152;49.202;18.744;2023-03-20T01:06:44;97379.22;;;8.24;46.34
70589;BME280;58152;49.202;18.744;2023-03-20T01:09:10;97373.44;;;8.16;46.29
70589;BME280;58152;49.202;18.744;2023-03-20T01:11:36;97385.75;;;8.12;46.47
70589;BME280;58152;49.202;18.744;2023-03-20T01:14:03;97392.94;;;8.06;46.31
70589;BME280;58152;49.202;18.744;2023-03-20T01:16:28;97383.41;;;8.05;46.71
70589;BME280;58152;49.202;18.744;2023-03-20T01:18:54;97383.63;;;7.99;46.64
70589;BME280;58152;49.202;18.744;2023-03-20T01:21:20;97390.66;;;7.97;46.69
70589;BME280;58152;49.202;18.744;2023-03-20T01:23:47;97389.94;;;7.92;46.97
70589;BME280;58152;49.202;18.744;2023-03-20T01:26:20;97386.56;;;7.89;47.58
70589;BME280;58152;49.202;18.744;2023-03-20T01:28:47;97374.50;;;7.85;46.93
70589;BME280;58152;49.202;18.744;2023-03-20T01:31:15;97374.66;;;7.81;47.24
70589;BME280;58152;49.202;18.744;2023-03-20T01:33:40;97375.75;;;7.74;47.22
70589;BME280;58152;49.202;18.744;2023-03-20T01:36:12;97380.19;;;7.72;46.97
70589;BME280;58152;49.202;18.744;2023-03-20T01:38:39;97385.50;;;7.69;47.81
70589;BME280;58152;49.202;18.744;2023-03-20T01:41:13;97388.25;;;7.66;48.09
70589;BME280;58152;49.202;18.744;2023-03-20T01:43:41;97386.72;;;7.58;47.52
70589;BME280;58152;49.202;18.744;2023-03-20T01:49:08;97392.19;;;7.51;49.35
70589;BME280;58152;49.202;18.744;2023-03-20T01:51:52;97389.84;;;7.43;47.60
70589;BME280;58152;49.202;18.744;2023-03-20T01:54:24;97389.06;;;7.39;48.17
70589;BME280;58152;49.202;18.744;2023-03-20T01:57:03;97391.63;;;7.41;47.81
70589;BME280;58152;49.202;18.744;2023-03-20T01:59:32;97406.28;;;7.45;48.14
70589;BME280;58152;49.202;18.744;2023-03-20T02:01:59;97405.53;;;7.42;47.82
70589;BME280;58152;49.202;18.744;2023-03-20T02:04:46;97406.28;;;7.45;49.37
70589;BME280;58152;49.202;18.744;2023-03-20T02:07:15;97400.44;;;7.37;47.89
70589;BME280;58152;49.202;18.744;2023-03-20T02:09:42;97402.41;;;7.30;47.99
70589;BME280;58152;49.202;18.744;2023-03-20T02:12:08;97394.72;;;7.26;47.92
70589;BME280;58152;49.202;18.744;2023-03-20T02:14:34;97410.47;;;7.23;48.25
70589;BME280;58152;49.202;18.744;2023-03-20T02:17:02;97404.69;;;7.13;48.33
70589;BME280;58152;49.202;18.744;2023-03-20T02:25:19;97418.56;;;7.15;48.60
70589;BME280;58152;49.202;18.744;2023-03-20T02:33:44;97404.34;;;6.96;48.99
70589;BME280;58152;49.202;18.744;2023-03-20T02:41:42;97401.78;;;6.94;48.80
70589;BME280;58152;49.202;18.744;2023-03-20T02:44:18;97403.53;;;6.94;48.81
70589;BME280;58152;49.202;18.744;2023-03-20T02:47:01;97398.41;;;6.91;49.85
70589;BME280;58152;49.202;18.744;2023-03-20T02:52:17;97402.00;;;6.88;49.89
70589;BME280;58152;49.202;18.744;2023-03-20T03:00:04;97402.28;;;6.77;51.60
70589;BME280;58152;49.202;18.744;2023-03-20T03:02:47;97401.63;;;6.71;49.49
70589;BME280;58152;49.202;18.744;2023-03-20T03:05:21;97404.44;;;6.63;49.33
70589;BME280;58152;49.202;18.744;2023-03-20T03:07:49;97392.56;;;6.53;49.42
70589;BME280;58152;49.202;18.744;2023-03-20T03:10:34;97402.22;;;6.49;50.66
70589;BME280;58152;49.202;18.744;2023-03-20T03:13:02;97392.84;;;6.44;49.54
70589;BME280;58152;49.202;18.744;2023-03-20T03:15:37;97396.38;;;6.41;50.12
70589;BME280;58152;49.202;18.744;2023-03-20T03:18:05;97400.00;;;6.37;49.95
70589;BME280;58152;49.202;18.744;2023-03-20T03:20:37;97395.69;;;6.34;49.79
70589;BME280;58152;49.202;18.744;2023-03-20T03:23:04;97393.94;;;6.35;49.89
70589;BME280;58152;49.202;18.744;2023-03-20T03:25:36;97388.78;;;6.33;50.11
70589;BME280;58152;49.202;18.744;2023-03-20T03:28:27;97390.41;;;6.38;51.23
70589;BME280;58152;49.202;18.744;2023-03-20T03:30:55;97387.16;;;6.29;50.03
70589;BME280;58152;49.202;18.744;2023-03-20T03:33:29;97394.13;;;6.29;50.40
70589;BME280;58152;49.202;18.744;2023-03-20T03:38:41;97399.47;;;6.23;50.42
70589;BME280;58152;49.202;18.744;2023-03-20T03:41:17;97397.66;;;6.26;50.54
70589;BME280;58152;49.202;18.744;2023-03-20T03:47:13;97396.97;;;6.20;52.06
70589;BME280;58152;49.202;18.744;2023-03-20T03:49:44;97403.16;;;6.16;50.52
70589;BME280;58152;49.202;18.744;2023-03-20T03:52:15;97395.41;;;6.14;50.58
70589;BME280;58152;49.202;18.744;2023-03-20T03:54:44;97381.63;;;6.09;50.59
70589;BME280;58152;49.202;18.744;2023-03-20T03:57:16;97386.81;;;6.10;50.62
70589;BME280;58152;49.202;18.744;2023-03-20T03:59:45;97384.31;;;6.06;50.57
70589;BME280;58152;49.202;18.744;2023-03-20T04:02:12;97399.06;;;6.07;50.67
70589;BME280;58152;49.202;18.744;2023-03-20T04:04:42;97391.41;;;6.01;50.63
70589;BME280;58152;49.202;18.744;2023-03-20T04:07:09;97396.66;;;5.99;50.73
70589;BME280;58152;49.202;18.744;2023-03-20T04:09:35;97389.81;;;5.95;50.87
70589;BME280;58152;49.202;18.744;2023-03-20T04:12:00;97396.81;;;5.93;50.79
70589;BME280;58152;49.202;18.744;2023-03-20T04:14:26;97396.91;;;5.89;50.63
70589;BME280;58152;49.202;18.744;2023-03-20T04:16:51;97400.31;;;5.92;51.22
70589;BME280;58152;49.202;18.744;2023-03-20T04:19:17;97397.72;;;5.92;51.09
70589;BME280;58152;49.202;18.744;2023-03-20T04:21:42;97394.31;;;5.89;51.08
70589;BME280;58152;49.202;18.744;2023-03-20T04:24:09;97404.75;;;5.87;51.20
70589;BME280;58152;49.202;18.744;2023-03-20T04:26:36;97401.31;;;5.86;51.58
70589;BME280;58152;49.202;18.744;2023-03-20T04:29:02;97404.78;;;5.85;51.28
70589;BME280;58152;49.202;18.744;2023-03-20T04:31:28;97403.09;;;5.84;51.35
70589;BME280;58152;49.202;18.744;2023-03-20T04:33:54;97417.81;;;5.85;51.23
70589;BME280;58152;49.202;18.744;2023-03-20T04:36:20;97404.06;;;5.80;51.10
70589;BME280;58152;49.202;18.744;2023-03-20T04:38:45;97405.84;;;5.78;51.51
70589;BME280;58152;49.202;18.744;2023-03-20T04:41:11;97405.13;;;5.73;51.85
70589;BME280;58152;49.202;18.744;2023-03-20T04:43:37;97406.03;;;5.71;51.75
70589;BME280;58152;49.202;18.744;2023-03-20T04:46:04;97406.09;;;5.69;51.26
70589;BME280;58152;49.202;18.744;2023-03-20T04:48:30;97412.19;;;5.68;51.79
70589;BME280;58152;49.202;18.744;2023-03-20T04:50:56;97401.00;;;5.65;51.60
70589;BME280;58152;49.202;18.744;2023-03-20T04:53:21;97410.50;;;5.66;51.91
70589;BME280;58152;49.202;18.744;2023-03-20T04:55:47;97419.94;;;5.70;51.96
70589;BME280;58152;49.202;18.744;2023-03-20T04:58:12;97412.19;;;5.68;52.06
70589;BME280;58152;49.202;18.744;2023-03-20T05:00:38;97415.72;;;5.66;52.08
70589;BME280;58152;49.202;18.744;2023-03-20T05:03:04;97416.59;;;5.65;52.14
70589;BME280;58152;49.202;18.744;2023-03-20T05:05:32;97414.13;;;5.60;52.23
70589;BME280;58152;49.202;18.744;2023-03-20T05:08:02;97408.97;;;5.57;52.21
70589;BME280;58152;49.202;18.744;2023-03-20T05:10:27;97407.31;;;5.54;52.39
70589;BME280;58152;49.202;18.744;2023-03-20T05:12:53;97408.97;;;5.57;52.18
70589;BME280;58152;49.202;18.744;2023-03-20T05:15:18;97409.94;;;5.53;52.17
70589;BME280;58152;49.202;18.744;2023-03-20T05:17:44;97426.28;;;5.58;52.27
70589;BME280;58152;49.202;18.744;2023-03-20T05:20:09;97416.91;;;5.52;52.10
70589;BME280;58152;49.202;18.744;2023-03-20T05:22:35;97418.59;;;5.55;52.42
70589;BME280;58152;49.202;18.744;2023-03-20T05:25:01;97416.00;;;5.53;52.61
70589;BME280;58152;49.202;18.744;2023-03-20T05:27:26;97425.56;;;5.53;52.53
70589;BME280;58152;49.202;18.744;2023-03-20T05:29:51;97429.00;;;5.53;52.00
70589;BME280;58152;49.202;18.744;2023-03-20T05:32:17;97441.06;;;5.57;52.54
70589;BME280;58152;49.202;18.744;2023-03-20T05:34:42;97429.88;;;5.54;52.58
70589;BME280;58152;49.202;18.744;2023-03-20T05:37:08;97428.94;;;5.56;52.45
70589;BME280;58152;49.202;18.744;2023-03-20T05:39:33;97436.75;;;5.56;52.90
70589;BME280;58152;49.202;18.744;2023-03-20T05:41:59;97439.34;;;5.56;52.63
70589;BME280;58152;49.202;18.744;2023-03-20T05:44:24;97442.88;;;5.55;52.59
70589;BME280;58152;49.202;18.744;2023-03-20T05:46:50;97441.97;;;5.56;52.81
70589;BME280;58152;49.202;18.744;2023-03-20T05:49:15;97435.06;;;5.55;52.59
70589;BME280;58152;49.202;18.744;2023-03-20T05:51:41;97445.47;;;5.54;53.43
70589;BME280;58152;49.202;18.744;2023-03-20T05:54:07;97446.38;;;5.53;53.05
70589;BME280;58152;49.202;18.744;2023-03-20T05:56:33;97435.06;;;5.54;52.99
70589;BME280;58152;49.202;18.744;2023-03-20T05:58:58;97448.91;;;5.56;53.10
70589;BME280;58152;49.202;18.744;2023-03-20T06:01:23;97454.06;;;5.59;53.19
70589;BME280;58152;49.202;18.744;2023-03-20T06:03:49;97456.56;;;5.64;52.98
70589;BME280;58152;49.202;18.744;2023-03-20T06:06:16;97456.47;;;5.67;52.64
70589;BME280;58152;49.202;18.744;2023-03-20T06:08:42;97462.44;;;5.70;53.31
70589;BME280;58152;49.202;18.744;2023-03-20T06:11:08;97438.28;;;5.65;53.20
70589;BME280;58152;49.202;18.744;2023-03-20T06:13:34;97456.41;;;5.70;53.03
70589;BME280;58152;49.202;18.744;2023-03-20T06:15:59;97465.09;;;5.69;52.95
70589;BME280;58152;49.202;18.744;2023-03-20T06:18:25;97467.59;;;5.73;53.19
70589;BME280;58152;49.202;18.744;2023-03-20T06:20:57;97461.44;;;5.77;53.56
70589;BME280;58152;49.202;18.744;2023-03-20T06:23:23;97464.56;;;5.90;53.43
70589;BME280;58152;49.202;18.744;2023-03-20T06:25:49;97465.25;;;5.98;53.39
70589;BME280;58152;49.202;18.744;2023-03-20T06:28:15;97464.47;;;5.95;53.23
70589;BME280;58152;49.202;18.744;2023-03-20T06:30:41;97473.97;;;5.97;53.14
70589;BME280;58152;49.202;18.744;2023-03-20T06:33:07;97479.19;;;5.97;53.33
70589;BME280;58152;49.202;18.744;2023-03-20T06:35:33;97482.63;;;5.98;53.05
70589;BME280;58152;49.202;18.744;2023-03-20T06:37:58;97481.84;;;5.94;52.91
70589;BME280;58152;49.202;18.744;2023-03-20T06:40:25;97488.69;;;5.98;53.28
70589;BME280;58152;49.202;18.744;2023-03-20T06:42:54;97486.03;;;6.00;53.42
70589;BME280;58152;49.202;18.744;2023-03-20T06:45:20;97476.53;;;5.99;53.42
70589;BME280;58152;49.202;18.744;2023-03-20T06:47:46;97482.69;;;5.96;53.20
70589;BME280;58152;49.202;18.744;2023-03-20T06:50:12;97475.75;;;5.95;53.12
70589;BME280;58152;49.202;18.744;2023-03-20T06:52:38;97486.03;;;6.00;53.10
70589;BME280;58152;49.202;18.744;2023-03-20T06:55:05;97481.75;;;5.99;53.05
70589;BME280;58152;49.202;18.744;2023-03-20T06:57:31;97478.22;;;6.00;53.54
70589;BME280;58152;49.202;18.744;2023-03-20T06:59:56;97483.25;;;6.07;53.66
70589;BME280;58152;49.202;18.744;2023-03-20T07:02:22;97483.03;;;6.17;53.61
70589;BME280;58152;49.202;18.744;2023-03-20T07:04:48;97491.47;;;6.26;52.77
70589;BME280;58152;49.202;18.744;2023-03-20T07:07:13;97488.84;;;6.28;53.31
70589;BME280;58152;49.202;18.744;2023-03-20T07:09:39;97487.06;;;6.28;53.16
70589;BME280;58152;49.202;18.744;2023-03-20T07:12:09;97484.47;;;6.28;53.25
70589;BME280;58152;49.202;18.744;2023-03-20T07:14:35;97489.69;;;6.28;53.46
70589;BME280;58152;49.202;18.744;2023-03-20T07:17:01;97494.91;;;6.28;53.33
70589;BME280;58152;49.202;18.744;2023-03-20T07:19:26;97487.06;;;6.28;53.37
70589;BME280;58152;49.202;18.744;2023-03-20T07:21:57;97483.53;;;6.31;53.29
70589;BME280;58152;49.202;18.744;2023-03-20T07:24:26;97482.72;;;6.29;53.21
70589;BME280;58152;49.202;18.744;2023-03-20T07:26:51;97481.81;;;6.30;53.51
70589;BME280;58152;49.202;18.744;2023-03-20T07:29:16;97486.13;;;6.31;53.03
70589;BME280;58152;49.202;18.744;2023-03-20T07:31:42;97477.50;;;6.29;53.02
70589;BME280;58152;49.202;18.744;2023-03-20T07:34:07;97485.31;;;6.29;53.63
70589;BME280;58152;49.202;18.744;2023-03-20T07:36:33;97480.91;;;6.31;53.27
70589;BME280;58152;49.202;18.744;2023-03-20T07:38:58;97491.16;;;6.39;53.69
70589;BME280;58152;49.202;18.744;2023-03-20T07:41:24;97487.63;;;6.40;53.35
70589;BME280;58152;49.202;18.744;2023-03-20T07:43:49;97473.69;;;6.41;53.33
70589;BME280;58152;49.202;18.744;2023-03-20T07:46:15;97480.53;;;6.45;53.25
70589;BME280;58152;49.202;18.744;2023-03-20T07:48:40;97472.59;;;6.49;53.09
70589;BME280;58152;49.202;18.744;2023-03-20T07:51:06;97463.00;;;6.51;53.29
70589;BME280;58152;49.202;18.744;2023-03-20T07:53:31;97469.94;;;6.52;53.57
70589;BME280;58152;49.202;18.744;2023-03-20T07:55:57;97472.47;;;6.55;53.81
70589;BME280;58152;49.202;18.744;2023-03-20T07:58:25;97471.44;;;6.61;53.78
70589;BME280;58152;49.202;18.744;2023-03-20T08:00:51;97475.59;;;6.67;54.24
70589;BME280;58152;49.202;18.744;2023-03-20T08:03:17;97484.88;;;6.77;54.02
70589;BME280;58152;49.202;18.744;2023-03-20T08:05:42;97482.19;;;6.80;53.88
70589;BME280;58152;49.202;18.744;2023-03-20T08:08:08;97486.44;;;6.82;53.91
70589;BME280;58152;49.202;18.744;2023-03-20T08:10:33;97485.66;;;6.80;53.44
70589;BME280;58152;49.202;18.744;2023-03-20T08:12:58;97492.56;;;6.81;53.31
70589;BME280;58152;49.202;18.744;2023-03-20T08:15:24;97490.81;;;6.82;53.56
70589;BME280;58152;49.202;18.744;2023-03-20T08:17:50;97489.94;;;6.83;53.60
70589;BME280;58152;49.202;18.744;2023-03-20T08:20:15;97494.97;;;6.89;53.62
70589;BME280;58152;49.202;18.744;2023-03-20T08:22:43;97501.00;;;6.91;53.64
70589;BME280;58152;49.202;18.744;2023-03-20T08:25:09;97476.72;;;6.89;53.42
70589;BME280;58152;49.202;18.744;2023-03-20T08:27:36;97476.59;;;6.94;52.97
70589;BME280;58152;49.202;18.744;2023-03-20T08:30:03;97479.06;;;6.98;53.37
70589;BME280;58152;49.202;18.744;2023-03-20T08:32:28;97470.28;;;7.01;53.05
70589;BME280;58152;49.202;18.744;2023-03-20T08:34:54;97456.28;;;7.03;52.99
70589;BME280;58152;49.202;18.744;2023-03-20T08:37:20;97456.22;;;7.06;52.58
70589;BME280;58152;49.202;18.744;2023-03-20T08:39:46;97455.16;;;7.12;53.09
70589;BME280;58152;49.202;18.744;2023-03-20T08:42:12;97458.50;;;7.17;53.36
70589;BME280;58152;49.202;18.744;2023-03-20T08:44:37;97464.44;;;7.22;53.45
70589;BME280;58152;49.202;18.744;2023-03-20T08:47:03;97456.47;;;7.27;53.23
70589;BME280;58152;49.202;18.744;2023-03-20T08:49:41;97455.41;;;7.32;54.03
70589;BME280;58152;49.202;18.744;2023-03-20T08:52:07;97461.03;;;7.48;53.91
70589;BME280;58152;49.202;18.744;2023-03-20T08:54:33;97464.13;;;7.61;54.03
70589;BME280;58152;49.202;18.744;2023-03-20T08:56:58;97469.91;;;7.69;53.30
70589;BME280;58152;49.202;18.744;2023-03-20T08:59:24;97468.91;;;7.73;53.83
70589;BME280;58152;49.202;18.744;2023-03-20T09:01:49;97461.94;;;7.74;54.02
70589;BME280;58152;49.202;18.744;2023-03-20T09:04:14;97459.31;;;7.74;53.65
70589;BME280;58152;49.202;18.744;2023-03-20T09:06:40;97454.06;;;7.75;53.65
70589;BME280;58152;49.202;18.744;2023-03-20T09:09:06;97465.97;;;7.84;53.96
70589;BME280;58152;49.202;18.744;2023-03-20T09:11:32;97470.22;;;7.88;53.40
70589;BME280;58152;49.202;18.744;2023-03-20T09:13:59;97470.84;;;7.95;53.17
70589;BME280;58152;49.202;18.744;2023-03-20T09:16:25;97468.94;;;8.00;53.12
70589;BME280;58152;49.202;18.744;2023-03-20T09:18:51;97462.75;;;8.02;53.79
70589;BME280;58152;49.202;18.744;2023-03-20T09:21:16;97462.56;;;8.08;53.16
70589;BME280;58152;49.202;18.744;2023-03-20T09:23:42;97468.38;;;8.17;53.71
70589;BME280;58152;49.202;18.744;2023-03-20T09:26:07;97459.41;;;8.24;53.77
70589;BME280;58152;49.202;18.744;2023-03-20T09:28:33;97454.72;;;8.33;54.08
70589;BME280;58152;49.202;18.744;2023-03-20T09:31:01;97450.06;;;8.43;53.80
70589;BME280;58152;49.202;18.744;2023-03-20T09:33:29;97433.94;;;8.55;52.91
70589;BME280;58152;49.202;18.744;2023-03-20T09:35:55;97434.41;;;8.67;53.05
70589;BME280;58152;49.202;18.744;2023-03-20T09:38:20;97436.38;;;8.83;52.45
70589;BME280;58152;49.202;18.744;2023-03-20T09:40:52;97437.44;;;9.03;53.13
70589;BME280;58152;49.202;18.744;2023-03-20T09:43:41;97442.31;;;9.34;52.65
70589;BME280;58152;49.202;18.744;2023-03-20T09:54:27;97422.78;;;9.64;52.12
70589;BME280;58152;49.202;18.744;2023-03-20T09:56:55;97419.00;;;9.72;51.67
70589;BME280;58152;49.202;18.744;2023-03-20T09:59:23;97419.78;;;9.74;51.06
70589;BME280;58152;49.202;18.744;2023-03-20T10:01:52;97422.09;;;9.81;51.03
70589;BME280;58152;49.202;18.744;2023-03-20T10:04:18;97420.72;;;9.93;51.33
70589;BME280;58152;49.202;18.744;2023-03-20T10:06:44;97413.97;;;10.08;51.26
70589;BME280;58152;49.202;18.744;2023-03-20T10:09:24;97414.94;;;10.48;50.31
70589;BME280;58152;49.202;18.744;2023-03-20T10:20:26;97391.03;;;11.48;49.26
70589;BME280;58152;49.202;18.744;2023-03-20T10:23:03;97388.72;;;11.42;49.26
70589;BME280;58152;49.202;18.744;2023-03-20T10:25:33;97367.94;;;11.37;49.61
70589;BME280;58152;49.202;18.744;2023-03-20T10:28:33;97370.31;;;11.78;49.39
70589;BME280;58152;49.202;18.744;2023-03-20T10:34:09;97383.78;;;12.24;47.92
70589;BME280;58152;49.202;18.744;2023-03-20T10:37:09;97364.41;;;12.42;47.50
70589;BME280;58152;49.202;18.744;2023-03-20T10:39:53;97371.69;;;12.70;47.44
70589;BME280;58152;49.202;18.744;2023-03-20T10:42:29;97362.97;;;12.86;46.46
70589;BME280;58152;49.202;18.744;2023-03-20T10:45:07;97363.47;;;13.08;46.44
70589;BME280;58152;49.202;18.744;2023-03-20T10:47:39;97364.78;;;13.33;45.67
70589;BME280;58152;49.202;18.744;2023-03-20T10:50:17;97354.66;;;13.41;45.74
70589;BME280;58152;49.202;18.744;2023-03-20T10:52:44;97360.19;;;13.52;45.24
70589;BME280;58152;49.202;18.744;2023-03-20T10:55:19;97353.28;;;13.65;45.63
70589;BME280;58152;49.202;18.744;2023-03-20T10:57:54;97354.59;;;13.88;45.52
70589;BME280;58152;49.202;18.744;2023-03-20T11:00:24;97349.91;;;14.08;45.23
70589;BME280;58152;49.202;18.744;2023-03-20T11:02:56;97347.88;;;14.27;45.41
70589;BME280;58152;49.202;18.744;2023-03-20T11:05:27;97339.53;;;14.49;45.22
70589;BME280;58152;49.202;18.744;2023-03-20T11:08:05;97343.47;;;14.70;44.83
70589;BME280;58152;49.202;18.744;2023-03-20T11:10:34;97351.88;;;14.91;44.34
70589;BME280;58152;49.202;18.744;2023-03-20T11:13:14;97330.81;;;15.04;44.05
70589;BME280;58152;49.202;18.744;2023-03-20T11:15:41;97337.44;;;15.24;43.73
70589;BME280;58152;49.202;18.744;2023-03-20T11:18:10;97326.75;;;15.40;43.50
70589;BME280;58152;49.202;18.744;2023-03-20T11:23:15;97324.78;;;15.83;42.80
70589;BME280;58152;49.202;18.744;2023-03-20T11:25:55;97322.50;;;16.04;42.42
70589;BME280;58152;49.202;18.744;2023-03-20T11:28:30;97312.03;;;16.28;41.90
70589;BME280;58152;49.202;18.744;2023-03-20T11:31:03;97318.59;;;16.22;42.14
70589;BME280;58152;49.202;18.744;2023-03-20T11:33:29;97312.88;;;15.63;42.95
70589;BME280;58152;49.202;18.744;2023-03-20T11:35:56;97311.50;;;15.31;43.25
70589;BME280;58152;49.202;18.744;2023-03-20T11:38:23;97307.09;;;15.03;43.21
70589;BME280;58152;49.202;18.744;2023-03-20T11:40:52;97304.78;;;15.52;42.53
70589;BME280;58152;49.202;18.744;2023-03-20T11:43:22;97311.38;;;15.99;41.35
70589;BME280;58152;49.202;18.744;2023-03-20T11:45:52;97301.44;;;16.28;41.67
70589;BME280;58152;49.202;18.744;2023-03-20T11:48:21;97308.44;;;16.42;41.39
70589;BME280;58152;49.202;18.744;2023-03-20T11:51:01;97305.47;;;16.59;41.82
70589;BME280;58152;49.202;18.744;2023-03-20T11:53:35;97295.59;;;16.87;40.68
70589;BME280;58152;49.202;18.744;2023-03-20T11:56:13;97292.50;;;17.17;40.59
70589;BME280;58152;49.202;18.744;2023-03-20T12:01:40;97283.66;;;17.77;38.35
70589;BME280;58152;49.202;18.744;2023-03-20T12:04:16;97290.34;;;18.05;38.79
70589;BME280;58152;49.202;18.744;2023-03-20T12:07:23;97281.50;;;18.40;37.21
70589;BME280;58152;49.202;18.744;2023-03-20T12:09:57;97279.91;;;18.60;37.09
70589;BME280;58152;49.202;18.744;2023-03-20T12:12:44;97276.56;;;18.80;35.81
70589;BME280;58152;49.202;18.744;2023-03-20T12:22:59;97253.38;;;18.93;36.35
70589;BME280;58152;49.202;18.744;2023-03-20T12:25:39;97259.44;;;19.27;36.21
70589;BME280;58152;49.202;18.744;2023-03-20T12:28:22;97250.53;;;19.49;35.27
70589;BME280;58152;49.202;18.744;2023-03-20T12:31:43;97271.16;;;19.68;35.40
70589;BME280;58152;49.202;18.744;2023-03-20T12:33:58;97266.91;;;18.57;36.55
70589;BME280;58152;49.202;18.744;2023-03-20T12:36:37;97267.72;;;18.68;36.02
70589;BME280;58152;49.202;18.744;2023-03-20T12:39:13;97261.94;;;18.63;35.90
70589;BME280;58152;49.202;18.744;2023-03-20T12:52:30;97253.72;;;16.92;39.38
70589;BME280;58152;49.202;18.744;2023-03-20T12:55:10;97253.53;;;16.82;39.12
70589;BME280;58152;49.202;18.744;2023-03-20T12:57:48;97248.03;;;16.72;38.78
70589;BME280;58152;49.202;18.744;2023-03-20T13:00:19;97255.13;;;17.33;36.95
70589;BME280;58152;49.202;18.744;2023-03-20T13:05:53;97235.09;;;17.99;37.27
70589;BME280;58152;49.202;18.744;2023-03-20T13:11:03;97240.44;;;18.55;35.51
70589;BME280;58152;49.202;18.744;2023-03-20T13:13:42;97235.25;;;18.31;36.59
70589;BME280;58152;49.202;18.744;2023-03-20T13:18:57;97241.72;;;17.93;36.82
70589;BME280;58152;49.202;18.744;2023-03-20T13:21:39;97238.22;;;17.58;37.34
70589;BME280;58152;49.202;18.744;2023-03-20T13:24:28;97249.19;;;17.29;37.15
70589;BME280;58152;49.202;18.744;2023-03-20T13:29:43;97235.31;;;16.77;38.10
70589;BME280;58152;49.202;18.744;2023-03-20T13:32:30;97245.38;;;16.60;38.52
70589;BME280;58152;49.202;18.744;2023-03-20T13:40:19;97240.34;;;16.31;39.66
70589;BME280;58152;49.202;18.744;2023-03-20T13:42:51;97239.09;;;16.24;39.73
70589;BME280;58152;49.202;18.744;2023-03-20T13:45:39;97228.81;;;16.19;39.06
70589;BME280;58152;49.202;18.744;2023-03-20T13:51:25;97229.53;;;17.56;37.86
70589;BME280;58152;49.202;18.744;2023-03-20T13:59:58;97228.47;;;17.23;37.60
70589;BME280;58152;49.202;18.744;2023-03-20T14:03:04;97221.22;;;17.25;37.83
70589;BME280;58152;49.202;18.744;2023-03-20T14:05:39;97218.63;;;17.12;38.20
70589;BME280;58152;49.202;18.744;2023-03-20T14:08:35;97218.81;;;16.98;38.84
70589;BME280;58152;49.202;18.744;2023-03-20T14:13:54;97222.06;;;16.77;39.11
70589;BME280;58152;49.202;18.744;2023-03-20T14:16:21;97222.78;;;16.67;39.01
70589;BME280;58152;49.202;18.744;2023-03-20T14:18:48;97210.44;;;16.55;38.98
70589;BME280;58152;49.202;18.744;2023-03-20T14:21:18;97215.09;;;16.51;39.22
70589;BME280;58152;49.202;18.744;2023-03-20T14:23:59;97219.13;;;16.44;39.29
70589;BME280;58152;49.202;18.744;2023-03-20T14:26:28;97220.31;;;16.40;39.58
70589;BME280;58152;49.202;18.744;2023-03-20T14:28:58;97209.00;;;16.38;40.10
70589;BME280;58152;49.202;18.744;2023-03-20T14:31:32;97209.53;;;16.30;40.12
70589;BME280;58152;49.202;18.744;2023-03-20T14:37:02;97227.44;;;16.26;40.24
70589;BME280;58152;49.202;18.744;2023-03-20T14:39:53;97225.13;;;16.22;40.25
70589;BME280;58152;49.202;18.744;2023-03-20T14:42:52;97225.53;;;16.16;40.49
70589;BME280;58152;49.202;18.744;2023-03-20T14:48:38;97219.31;;;16.04;40.49
70589;BME280;58152;49.202;18.744;2023-03-20T14:56:32;97220.56;;;15.98;40.66
70589;BME280;58152;49.202;18.744;2023-03-20T14:59:03;97216.97;;;15.99;40.99
70589;BME280;58152;49.202;18.744;2023-03-20T15:01:41;97219.06;;;16.07;40.59
70589;BME280;58152;49.202;18.744;2023-03-20T15:07:02;97220.56;;;15.98;41.04
70589;BME280;58152;49.202;18.744;2023-03-20T15:09:30;97222.69;;;15.93;41.50
70589;BME280;58152;49.202;18.744;2023-03-20T15:11:58;97229.78;;;15.93;41.18
70589;BME280;58152;49.202;18.744;2023-03-20T15:14:38;97225.94;;;15.84;41.55
70589;BME280;58152;49.202;18.744;2023-03-20T15:17:14;97228.81;;;15.81;41.58
70589;BME280;58152;49.202;18.744;2023-03-20T15:19:42;97230.81;;;15.78;41.73
70589;BME280;58152;49.202;18.744;2023-03-20T15:22:18;97238.13;;;15.74;42.68
70589;BME280;58152;49.202;18.744;2023-03-20T15:24:51;97239.28;;;15.70;42.51